sensor_id;sensor_type;location;lat;lon;timestamp;pressure;altitude;pressure_sealevel;temperature;humidity
43824;BME280;29470;53.550;9.926;2023-05-02T00:03:51;101135.28;;;13.88;75.99
43824;BME280;29470;53.550;9.926;2023-05-02T00:08:56;101130.09;;;13.88;76.90
43824;BME280;29470;53.550;9.926;2023-05-02T00:14:01;101130.78;;;13.85;76.64
43824;BME280;29470;53.550;9.926;2023-05-02T00:19:04;101141.31;;;13.74;78.01
43824;BME280;29470;53.550;9.926;2023-05-02T00:24:09;101134.63;;;14.06;77.55
43824;BME280;29470;53.550;9.926;2023-05-02T00:29:12;101138.38;;;14.39;75.58
43824;BME280;29470;53.550;9.926;2023-05-02T00:34:15;101138.16;;;13.93;79.68
43824;BME280;29470;53.550;9.926;2023-05-02T00:39:19;101152.09;;;13.80;81.32
43824;BME280;29470;53.550;9.926;2023-05-02T00:44:22;101144.34;;;13.66;81.42
43824;BME280;29470;53.550;9.926;2023-05-02T00:49:24;101134.19;;;13.84;82.32
43824;BME280;29470;53.550;9.926;2023-05-02T00:54:30;101135.13;;;13.72;82.73
43824;BME280;29470;53.550;9.926;2023-05-02T00:59:34;101136.31;;;13.77;81.99
43824;BME280;29470;53.550;9.926;2023-05-02T01:04:43;101139.44;;;13.99;81.62
43824;BME280;29470;53.550;9.926;2023-05-02T01:09:58;101142.34;;;13.62;82.95
43824;BME280;29470;53.550;9.926;2023-05-02T01:15:05;101137.53;;;13.97;82.69
43824;BME280;29470;53.550;9.926;2023-05-02T01:20:13;101135.09;;;13.85;84.98
43824;BME280;29470;53.550;9.926;2023-05-02T01:25:24;101142.97;;;14.15;85.39
43824;BME280;29470;53.550;9.926;2023-05-02T01:30:35;101143.16;;;13.34;90.85
43824;BME280;29470;53.550;9.926;2023-05-02T01:35:39;101139.44;;;13.58;89.51
43824;BME280;29470;53.550;9.926;2023-05-02T01:40:43;101154.66;;;13.11;92.88
43824;BME280;29470;53.550;9.926;2023-05-02T01:45:49;101153.13;;;13.15;93.80
43824;BME280;29470;53.550;9.926;2023-05-02T01:50:53;101157.91;;;12.81;97.41
43824;BME280;29470;53.550;9.926;2023-05-02T01:55:58;101161.22;;;12.92;97.53
43824;BME280;29470;53.550;9.926;2023-05-02T02:01:03;101165.69;;;12.81;97.89
43824;BME280;29470;53.550;9.926;2023-05-02T02:06:07;101163.25;;;13.23;97.33
43824;BME280;29470;53.550;9.926;2023-05-02T02:11:16;101166.31;;;13.31;97.33
43824;BME280;29470;53.550;9.926;2023-05-02T02:16:29;101167.97;;;13.43;95.12
43824;BME280;29470;53.550;9.926;2023-05-02T02:21:33;101168.41;;;13.37;92.21
43824;BME280;29470;53.550;9.926;2023-05-02T02:26:36;101180.44;;;13.21;93.89
43824;BME280;29470;53.550;9.926;2023-05-02T02:31:40;101191.78;;;12.96;93.65
43824;BME280;29470;53.550;9.926;2023-05-02T02:36:45;101209.50;;;13.29;90.97
43824;BME280;29470;53.550;9.926;2023-05-02T02:41:59;101213.16;;;13.06;91.59
43824;BME280;29470;53.550;9.926;2023-05-02T02:52:51;101235.72;;;12.43;86.26
43824;BME280;29470;53.550;9.926;2023-05-02T02:57:59;101245.38;;;12.57;84.05
43824;BME280;29470;53.550;9.926;2023-05-02T03:03:06;101271.88;;;12.28;79.38
43824;BME280;29470;53.550;9.926;2023-05-02T03:08:09;101287.28;;;12.01;77.33
43824;BME280;29470;53.550;9.926;2023-05-02T03:13:12;101295.84;;;12.00;76.36
43824;BME280;29470;53.550;9.926;2023-05-02T03:18:17;101303.13;;;11.82;76.17
43824;BME280;29470;53.550;9.926;2023-05-02T03:23:20;101308.41;;;11.95;74.78
43824;BME280;29470;53.550;9.926;2023-05-02T03:28:25;101317.41;;;11.53;75.28
43824;BME280;29470;53.550;9.926;2023-05-02T03:33:30;101334.66;;;11.40;76.22
43824;BME280;29470;53.550;9.926;2023-05-02T03:38:33;101335.22;;;11.84;75.41
43824;BME280;29470;53.550;9.926;2023-05-02T03:43:40;101342.34;;;11.62;76.08
43824;BME280;29470;53.550;9.926;2023-05-02T03:48:44;101360.00;;;11.10;76.72
43824;BME280;29470;53.550;9.926;2023-05-02T03:53:47;101363.72;;;11.60;75.41
43824;BME280;29470;53.550;9.926;2023-05-02T03:58:50;101369.97;;;11.28;73.89
43824;BME280;29470;53.550;9.926;2023-05-02T04:04:01;101383.66;;;11.49;72.98
43824;BME280;29470;53.550;9.926;2023-05-02T04:09:09;101395.25;;;11.42;70.21
43824;BME280;29470;53.550;9.926;2023-05-02T04:14:20;101412.50;;;11.19;69.71
43824;BME280;29470;53.550;9.926;2023-05-02T04:19:26;101413.31;;;11.30;66.70
43824;BME280;29470;53.550;9.926;2023-05-02T04:24:29;101435.66;;;11.18;64.66
43824;BME280;29470;53.550;9.926;2023-05-02T04:29:32;101444.41;;;11.30;63.83
43824;BME280;29470;53.550;9.926;2023-05-02T04:34:38;101445.09;;;11.40;62.23
43824;BME280;29470;53.550;9.926;2023-05-02T04:39:42;101456.53;;;11.54;61.19
43824;BME280;29470;53.550;9.926;2023-05-02T04:44:52;101467.50;;;11.61;60.95
43824;BME280;29470;53.550;9.926;2023-05-02T04:49:57;101478.31;;;11.68;60.37
43824;BME280;29470;53.550;9.926;2023-05-02T04:55:00;101485.25;;;11.57;59.32
43824;BME280;29470;53.550;9.926;2023-05-02T05:00:04;101497.97;;;11.54;59.52
43824;BME280;29470;53.550;9.926;2023-05-02T05:05:08;101517.31;;;11.47;59.36
43824;BME280;29470;53.550;9.926;2023-05-02T05:10:11;101514.50;;;11.44;59.56
43824;BME280;29470;53.550;9.926;2023-05-02T05:15:19;101523.72;;;11.40;59.13
43824;BME280;29470;53.550;9.926;2023-05-02T05:20:29;101520.81;;;11.82;57.50
43824;BME280;29470;53.550;9.926;2023-05-02T05:25:34;101538.66;;;11.32;58.82
43824;BME280;29470;53.550;9.926;2023-05-02T05:30:37;101542.75;;;11.18;59.57
43824;BME280;29470;53.550;9.926;2023-05-02T05:35:45;101553.69;;;11.26;58.31
43824;BME280;29470;53.550;9.926;2023-05-02T05:40:48;101565.03;;;11.16;59.67
43824;BME280;29470;53.550;9.926;2023-05-02T05:45:52;101573.63;;;11.05;58.82
43824;BME280;29470;53.550;9.926;2023-05-02T05:50:56;101574.63;;;11.07;58.92
43824;BME280;29470;53.550;9.926;2023-05-02T05:56:08;101591.31;;;11.11;58.86
43824;BME280;29470;53.550;9.926;2023-05-02T06:01:13;101591.00;;;10.96;56.78
43824;BME280;29470;53.550;9.926;2023-05-02T06:06:17;101603.72;;;10.72;55.81
43824;BME280;29470;53.550;9.926;2023-05-02T06:11:20;101614.63;;;11.11;53.69
43824;BME280;29470;53.550;9.926;2023-05-02T06:16:37;101617.66;;;11.27;53.59
43824;BME280;29470;53.550;9.926;2023-05-02T06:21:48;101613.72;;;11.65;51.48
43824;BME280;29470;53.550;9.926;2023-05-02T06:26:50;101631.38;;;11.59;51.18
43824;BME280;29470;53.550;9.926;2023-05-02T06:31:54;101632.78;;;11.43;50.95
43824;BME280;29470;53.550;9.926;2023-05-02T06:36:59;101649.97;;;11.43;51.04
43824;BME280;29470;53.550;9.926;2023-05-02T06:42:01;101653.09;;;11.06;52.23
43824;BME280;29470;53.550;9.926;2023-05-02T06:47:06;101663.81;;;11.11;50.78
43824;BME280;29470;53.550;9.926;2023-05-02T06:52:11;101674.88;;;11.30;49.91
43824;BME280;29470;53.550;9.926;2023-05-02T06:57:14;101688.47;;;11.38;49.20
43824;BME280;29470;53.550;9.926;2023-05-02T07:02:17;101697.50;;;11.76;47.77
43824;BME280;29470;53.550;9.926;2023-05-02T07:07:21;101704.00;;;11.71;47.23
43824;BME280;29470;53.550;9.926;2023-05-02T07:12:24;101720.97;;;11.67;47.12
43824;BME280;29470;53.550;9.926;2023-05-02T07:17:27;101720.63;;;11.62;46.75
43824;BME280;29470;53.550;9.926;2023-05-02T07:22:31;101728.59;;;12.08;45.28
43824;BME280;29470;53.550;9.926;2023-05-02T07:27:34;101730.66;;;12.13;44.15
43824;BME280;29470;53.550;9.926;2023-05-02T07:32:37;101733.91;;;12.32;44.04
43824;BME280;29470;53.550;9.926;2023-05-02T07:37:41;101736.84;;;11.92;45.15
43824;BME280;29470;53.550;9.926;2023-05-02T07:42:44;101740.31;;;12.60;44.24
43824;BME280;29470;53.550;9.926;2023-05-02T07:47:48;101753.06;;;12.57;43.91
43824;BME280;29470;53.550;9.926;2023-05-02T07:52:53;101755.72;;;12.46;44.56
43824;BME280;29470;53.550;9.926;2023-05-02T07:57:56;101765.63;;;12.96;43.80
43824;BME280;29470;53.550;9.926;2023-05-02T08:02:59;101769.16;;;12.41;45.03
43824;BME280;29470;53.550;9.926;2023-05-02T08:08:04;101778.75;;;12.42;44.13
43824;BME280;29470;53.550;9.926;2023-05-02T08:13:07;101788.38;;;12.32;43.61
43824;BME280;29470;53.550;9.926;2023-05-02T08:18:09;101788.78;;;13.05;41.80
43824;BME280;29470;53.550;9.926;2023-05-02T08:23:14;101791.41;;;13.17;42.21
43824;BME280;29470;53.550;9.926;2023-05-02T08:28:17;101798.13;;;13.97;40.58
43824;BME280;29470;53.550;9.926;2023-05-02T08:33:20;101816.22;;;13.60;41.05
43824;BME280;29470;53.550;9.926;2023-05-02T08:38:25;101804.50;;;13.31;41.90
43824;BME280;29470;53.550;9.926;2023-05-02T08:43:28;101818.81;;;13.60;41.95
43824;BME280;29470;53.550;9.926;2023-05-02T08:48:34;101823.00;;;13.46;41.96
43824;BME280;29470;53.550;9.926;2023-05-02T08:53:40;101818.22;;;14.11;39.60
43824;BME280;29470;53.550;9.926;2023-05-02T08:58:43;101825.16;;;14.85;38.92
43824;BME280;29470;53.550;9.926;2023-05-02T09:03:46;101832.09;;;15.24;37.96
43824;BME280;29470;53.550;9.926;2023-05-02T09:08:51;101828.34;;;15.72;36.57
43824;BME280;29470;53.550;9.926;2023-05-02T09:13:54;101831.03;;;15.60;36.89
43824;BME280;29470;53.550;9.926;2023-05-02T09:18:59;101827.53;;;16.14;36.79
43824;BME280;29470;53.550;9.926;2023-05-02T09:24:14;101851.09;;;14.35;39.24
43824;BME280;29470;53.550;9.926;2023-05-02T09:29:18;101845.56;;;15.43;38.16
43824;BME280;29470;53.550;9.926;2023-05-02T09:34:22;101863.59;;;15.40;38.90
43824;BME280;29470;53.550;9.926;2023-05-02T09:39:27;101857.53;;;14.89;40.42
43824;BME280;29470;53.550;9.926;2023-05-02T09:44:36;101869.13;;;15.06;39.88
43824;BME280;29470;53.550;9.926;2023-05-02T09:49:41;101871.94;;;15.61;37.96
43824;BME280;29470;53.550;9.926;2023-05-02T09:54:46;101866.78;;;16.15;37.35
43824;BME280;29470;53.550;9.926;2023-05-02T09:59:54;101873.13;;;15.53;39.43
43824;BME280;29470;53.550;9.926;2023-05-02T10:04:58;101876.13;;;15.07;40.12
43824;BME280;29470;53.550;9.926;2023-05-02T10:10:06;101884.97;;;15.87;38.96
43824;BME280;29470;53.550;9.926;2023-05-02T10:15:11;101881.44;;;16.00;38.63
43824;BME280;29470;53.550;9.926;2023-05-02T10:20:21;101883.72;;;15.04;39.93
43824;BME280;29470;53.550;9.926;2023-05-02T10:25:27;101873.13;;;16.89;37.37
43824;BME280;29470;53.550;9.926;2023-05-02T10:30:32;101887.72;;;15.63;38.65
43824;BME280;29470;53.550;9.926;2023-05-02T10:35:38;101894.25;;;15.83;38.81
43824;BME280;29470;53.550;9.926;2023-05-02T10:40:57;101906.44;;;14.93;41.52
43824;BME280;29470;53.550;9.926;2023-05-02T10:46:02;101908.97;;;15.56;41.35
43824;BME280;29470;53.550;9.926;2023-05-02T10:51:05;101905.75;;;15.60;40.41
43824;BME280;29470;53.550;9.926;2023-05-02T10:56:17;101901.13;;;15.56;39.44
43824;BME280;29470;53.550;9.926;2023-05-02T11:01:32;101910.72;;;15.18;41.01
43824;BME280;29470;53.550;9.926;2023-05-02T11:07:16;101922.03;;;15.05;41.62
43824;BME280;29470;53.550;9.926;2023-05-02T11:12:43;101916.59;;;15.02;42.13
43824;BME280;29470;53.550;9.926;2023-05-02T11:18:05;101930.31;;;15.25;41.88
43824;BME280;29470;53.550;9.926;2023-05-02T11:23:21;101923.84;;;14.57;43.17
43824;BME280;29470;53.550;9.926;2023-05-02T11:28:43;101928.34;;;14.59;43.24
43824;BME280;29470;53.550;9.926;2023-05-02T11:33:54;101943.28;;;14.74;42.86
43824;BME280;29470;53.550;9.926;2023-05-02T11:38:59;101958.09;;;15.50;41.98
43824;BME280;29470;53.550;9.926;2023-05-02T11:44:04;101957.44;;;15.40;42.50
43824;BME280;29470;53.550;9.926;2023-05-02T11:49:07;101963.72;;;15.95;40.13
43824;BME280;29470;53.550;9.926;2023-05-02T11:54:17;101973.69;;;15.75;40.22
43824;BME280;29470;53.550;9.926;2023-05-02T11:59:22;101968.56;;;16.15;38.93
43824;BME280;29470;53.550;9.926;2023-05-02T12:04:25;101964.84;;;16.94;37.35
43824;BME280;29470;53.550;9.926;2023-05-02T12:09:28;101959.97;;;16.99;37.03
43824;BME280;29470;53.550;9.926;2023-05-02T12:14:33;101981.91;;;15.68;38.47
43824;BME280;29470;53.550;9.926;2023-05-02T12:19:38;101983.41;;;15.39;39.08
43824;BME280;29470;53.550;9.926;2023-05-02T12:24:41;101984.13;;;15.24;39.18
43824;BME280;29470;53.550;9.926;2023-05-02T12:29:47;101980.66;;;15.12;38.29
43824;BME280;29470;53.550;9.926;2023-05-02T12:34:50;101992.59;;;15.08;38.66
43824;BME280;29470;53.550;9.926;2023-05-02T12:39:53;102000.53;;;15.35;37.30
43824;BME280;29470;53.550;9.926;2023-05-02T12:44:58;102002.88;;;15.07;37.24
43824;BME280;29470;53.550;9.926;2023-05-02T12:50:01;102008.97;;;15.70;37.75
43824;BME280;29470;53.550;9.926;2023-05-02T12:55:14;102009.97;;;15.97;37.79
43824;BME280;29470;53.550;9.926;2023-05-02T13:00:19;102013.91;;;14.91;38.45
43824;BME280;29470;53.550;9.926;2023-05-02T13:05:22;102024.53;;;15.94;37.49
43824;BME280;29470;53.550;9.926;2023-05-02T13:10:24;102026.19;;;15.80;38.08
43824;BME280;29470;53.550;9.926;2023-05-02T13:15:43;102032.72;;;14.98;39.05
43824;BME280;29470;53.550;9.926;2023-05-02T13:20:46;102031.03;;;15.36;39.02
43824;BME280;29470;53.550;9.926;2023-05-02T13:25:49;102042.09;;;14.61;40.65
43824;BME280;29470;53.550;9.926;2023-05-02T13:30:53;102048.84;;;15.30;40.23
43824;BME280;29470;53.550;9.926;2023-05-02T13:35:56;102053.41;;;14.49;42.32
43824;BME280;29470;53.550;9.926;2023-05-02T13:40:59;102062.31;;;13.71;44.36
43824;BME280;29470;53.550;9.926;2023-05-02T13:46:03;102065.50;;;13.79;44.34
43824;BME280;29470;53.550;9.926;2023-05-02T13:51:06;102049.13;;;14.50;43.57
43824;BME280;29470;53.550;9.926;2023-05-02T13:56:09;102054.34;;;14.50;42.93
43824;BME280;29470;53.550;9.926;2023-05-02T14:01:13;102049.94;;;13.91;43.79
43824;BME280;29470;53.550;9.926;2023-05-02T14:06:16;102063.94;;;13.59;45.37
43824;BME280;29470;53.550;9.926;2023-05-02T14:11:19;102074.97;;;14.01;44.68
43824;BME280;29470;53.550;9.926;2023-05-02T14:16:24;102079.19;;;14.22;43.95
43824;BME280;29470;53.550;9.926;2023-05-02T14:21:27;102076.69;;;14.82;42.11
43824;BME280;29470;53.550;9.926;2023-05-02T14:26:29;102076.31;;;14.65;41.96
43824;BME280;29470;53.550;9.926;2023-05-02T14:31:34;102096.50;;;14.34;43.20
43824;BME280;29470;53.550;9.926;2023-05-02T14:36:37;102091.47;;;14.59;43.10
43824;BME280;29470;53.550;9.926;2023-05-02T14:41:40;102094.44;;;15.11;42.66
43824;BME280;29470;53.550;9.926;2023-05-02T14:46:44;102103.47;;;14.69;40.71
43824;BME280;29470;53.550;9.926;2023-05-02T14:51:47;102099.38;;;14.61;40.22
43824;BME280;29470;53.550;9.926;2023-05-02T14:56:50;102098.00;;;14.30;40.76
43824;BME280;29470;53.550;9.926;2023-05-02T15:01:56;102106.69;;;14.31;40.86
43824;BME280;29470;53.550;9.926;2023-05-02T15:06:59;102109.81;;;14.03;40.64
43824;BME280;29470;53.550;9.926;2023-05-02T15:13:58;102107.38;;;14.40;40.89
43824;BME280;29470;53.550;9.926;2023-05-02T15:25:08;102112.06;;;14.68;41.12
43824;BME280;29470;53.550;9.926;2023-05-02T15:30:11;102118.81;;;14.30;41.40
43824;BME280;29470;53.550;9.926;2023-05-02T15:35:16;102120.53;;;13.95;41.81
43824;BME280;29470;53.550;9.926;2023-05-02T15:40:20;102127.06;;;13.90;41.79
43824;BME280;29470;53.550;9.926;2023-05-02T15:45:23;102132.69;;;14.19;41.48
43824;BME280;29470;53.550;9.926;2023-05-02T15:50:31;102132.38;;;14.26;41.78
43824;BME280;29470;53.550;9.926;2023-05-02T15:55:35;102144.56;;;14.15;41.91
43824;BME280;29470;53.550;9.926;2023-05-02T16:00:51;102148.16;;;14.05;42.32
43824;BME280;29470;53.550;9.926;2023-05-02T16:06:17;102141.63;;;13.66;42.53
43824;BME280;29470;53.550;9.926;2023-05-02T16:11:22;102150.09;;;13.63;42.42
43824;BME280;29470;53.550;9.926;2023-05-02T16:16:26;102152.03;;;13.88;41.62
43824;BME280;29470;53.550;9.926;2023-05-02T16:21:32;102155.50;;;13.44;41.17
43824;BME280;29470;53.550;9.926;2023-05-02T16:26:36;102174.22;;;13.40;41.66
43824;BME280;29470;53.550;9.926;2023-05-02T16:31:39;102167.03;;;13.58;41.37
43824;BME280;29470;53.550;9.926;2023-05-02T16:36:45;102172.28;;;13.48;41.54
43824;BME280;29470;53.550;9.926;2023-05-02T16:41:50;102170.28;;;14.00;40.28
43824;BME280;29470;53.550;9.926;2023-05-02T16:47:07;102181.75;;;14.14;39.22
43824;BME280;29470;53.550;9.926;2023-05-02T16:59:41;102194.13;;;13.72;39.72
43824;BME280;29470;53.550;9.926;2023-05-02T17:17:51;102200.81;;;13.58;41.33
43824;BME280;29470;53.550;9.926;2023-05-02T17:22:54;102206.94;;;13.05;41.98
43824;BME280;29470;53.550;9.926;2023-05-02T17:27:57;102206.94;;;12.95;42.42
43824;BME280;29470;53.550;9.926;2023-05-02T17:33:01;102205.03;;;13.46;41.94
43824;BME280;29470;53.550;9.926;2023-05-02T17:38:05;102207.34;;;12.89;43.04
43824;BME280;29470;53.550;9.926;2023-05-02T17:43:08;102211.78;;;12.90;43.08
43824;BME280;29470;53.550;9.926;2023-05-02T17:48:15;102212.94;;;12.52;43.06
43824;BME280;29470;53.550;9.926;2023-05-02T17:53:19;102221.38;;;12.71;42.85
43824;BME280;29470;53.550;9.926;2023-05-02T17:58:25;102227.72;;;12.64;43.21
43824;BME280;29470;53.550;9.926;2023-05-02T18:03:53;102232.38;;;13.09;42.60
43824;BME280;29470;53.550;9.926;2023-05-02T18:09:26;102240.59;;;12.83;42.95
43824;BME280;29470;53.550;9.926;2023-05-02T18:14:29;102239.81;;;12.63;43.68
43824;BME280;29470;53.550;9.926;2023-05-02T18:26:59;102261.31;;;12.31;44.45
43824;BME280;29470;53.550;9.926;2023-05-02T18:59:39;102261.22;;;11.71;46.79
43824;BME280;29470;53.550;9.926;2023-05-02T20:01:58;102333.06;;;10.86;52.75
43824;BME280;29470;53.550;9.926;2023-05-02T20:07:03;102343.56;;;10.60;53.81
43824;BME280;29470;53.550;9.926;2023-05-02T20:12:07;102344.81;;;10.46;54.31
43824;BME280;29470;53.550;9.926;2023-05-02T20:17:47;102348.50;;;10.39;54.10
43824;BME280;29470;53.550;9.926;2023-05-02T20:29:58;102352.66;;;9.93;56.07
43824;BME280;29470;53.550;9.926;2023-05-02T20:35:03;102359.00;;;10.23;55.48
43824;BME280;29470;53.550;9.926;2023-05-02T20:40:11;102352.06;;;9.96;56.93
43824;BME280;29470;53.550;9.926;2023-05-02T20:45:14;102354.81;;;9.71;57.16
43824;BME280;29470;53.550;9.926;2023-05-02T20:50:20;102352.69;;;9.84;57.22
43824;BME280;29470;53.550;9.926;2023-05-02T20:55:23;102359.69;;;9.85;57.37
43824;BME280;29470;53.550;9.926;2023-05-02T21:00:26;102362.44;;;9.69;58.46
43824;BME280;29470;53.550;9.926;2023-05-02T21:05:30;102369.09;;;9.58;59.09
43824;BME280;29470;53.550;9.926;2023-05-02T21:10:33;102362.44;;;9.69;59.05
43824;BME280;29470;53.550;9.926;2023-05-02T21:15:37;102365.16;;;9.45;59.36
43824;BME280;29470;53.550;9.926;2023-05-02T21:20:42;102366.53;;;9.50;59.74
43824;BME280;29470;53.550;9.926;2023-05-02T21:25:45;102363.50;;;9.54;60.42
43824;BME280;29470;53.550;9.926;2023-05-02T21:30:48;102369.09;;;9.58;60.34
43824;BME280;29470;53.550;9.926;2023-05-02T21:35:56;102369.22;;;9.34;61.80
43824;BME280;29470;53.550;9.926;2023-05-02T21:41:00;102364.41;;;9.63;60.70
43824;BME280;29470;53.550;9.926;2023-05-02T21:46:03;102367.28;;;9.49;61.19
43824;BME280;29470;53.550;9.926;2023-05-02T21:51:08;102375.00;;;9.40;61.54
43824;BME280;29470;53.550;9.926;2023-05-02T21:56:12;102379.38;;;9.23;62.62
43824;BME280;29470;53.550;9.926;2023-05-02T22:01:15;102372.97;;;9.02;63.14
43824;BME280;29470;53.550;9.926;2023-05-02T22:06:19;102378.41;;;8.96;63.67
43824;BME280;29470;53.550;9.926;2023-05-02T22:11:22;102386.44;;;8.82;64.41
43824;BME280;29470;53.550;9.926;2023-05-02T22:16:26;102374.97;;;9.13;63.64
43824;BME280;29470;53.550;9.926;2023-05-02T22:21:30;102379.25;;;8.71;64.10
43824;BME280;29470;53.550;9.926;2023-05-02T22:26:35;102382.59;;;8.69;64.50
43824;BME280;29470;53.550;9.926;2023-05-02T22:31:37;102388.06;;;8.73;64.28
43824;BME280;29470;53.550;9.926;2023-05-02T22:36:42;102386.56;;;8.75;63.45
43824;BME280;29470;53.550;9.926;2023-05-02T22:41:44;102393.13;;;8.89;62.80
43824;BME280;29470;53.550;9.926;2023-05-02T22:46:47;102397.00;;;9.27;62.02
43824;BME280;29470;53.550;9.926;2023-05-02T22:51:51;102400.88;;;8.89;62.42
43824;BME280;29470;53.550;9.926;2023-05-02T22:56:58;102397.03;;;8.76;62.88
43824;BME280;29470;53.550;9.926;2023-05-02T23:02:02;102397.84;;;9.02;62.47
43824;BME280;29470;53.550;9.926;2023-05-02T23:07:06;102401.75;;;8.89;62.38
43824;BME280;29470;53.550;9.926;2023-05-02T23:12:09;102402.78;;;8.74;63.41
43824;BME280;29470;53.550;9.926;2023-05-02T23:17:12;102400.88;;;8.89;63.23
43824;BME280;29470;53.550;9.926;2023-05-02T23:22:16;102403.22;;;8.69;63.63
43824;BME280;29470;53.550;9.926;2023-05-02T23:27:19;102403.75;;;8.83;63.25
43824;BME280;29470;53.550;9.926;2023-05-02T23:32:23;102408.91;;;8.92;62.98
43824;BME280;29470;53.550;9.926;2023-05-02T23:37:28;102409.91;;;8.67;63.49
43824;BME280;29470;53.550;9.926;2023-05-02T23:42:31;102419.00;;;8.48;65.09
43824;BME280;29470;53.550;9.926;2023-05-02T23:47:34;102420.94;;;8.42;64.90
43824;BME280;29470;53.550;9.926;2023-05-02T23:52:39;102423.44;;;8.49;64.88
43824;BME280;29470;53.550;9.926;2023-05-02T23:57:42;102418.94;;;8.55;64.71
